createdAt,value
2023-02-24T00:02:06.346Z,82.47
2023-02-24T00:04:40.896Z,82.40
2023-02-24T00:07:10.860Z,82.78
2023-02-24T00:09:40.267Z,83.02
2023-02-24T00:12:13.376Z,81.98
2023-02-24T00:14:44.757Z,83.90
2023-02-24T00:17:16.423Z,84.93
2023-02-24T00:19:44.514Z,84.59
2023-02-24T00:22:12.992Z,83.64
2023-02-24T00:24:40.941Z,83.38
2023-02-24T00:27:11.955Z,83.12
2023-02-24T00:29:42.321Z,83.20
2023-02-24T00:32:13.520Z,82.64
2023-02-24T00:34:45.408Z,82.43
2023-02-24T00:37:15.557Z,82.86
2023-02-24T00:39:45.765Z,82.77
2023-02-24T00:42:15.054Z,82.38
2023-02-24T00:44:47.261Z,81.93
2023-02-24T00:47:18.233Z,81.70
2023-02-24T00:49:46.634Z,81.76
2023-02-24T00:52:19.402Z,81.61
2023-02-24T00:54:49.434Z,80.97
2023-02-24T00:57:18.800Z,81.82
2023-02-24T00:59:47.911Z,82.54
2023-02-24T01:02:16.383Z,82.40
2023-02-24T01:04:46.219Z,81.67
2023-02-24T01:07:14.954Z,81.37
2023-02-24T01:09:44.448Z,81.62
2023-02-24T01:12:42.961Z,81.80
2023-02-24T01:15:11.702Z,81.17
2023-02-24T01:17:40.877Z,81.52
2023-02-24T01:20:19.205Z,81.26
2023-02-24T01:22:53.505Z,81.51
2023-02-24T01:25:21.868Z,82.29
2023-02-24T01:27:49.701Z,82.04
2023-02-24T01:30:18.663Z,82.06
2023-02-24T01:32:47.719Z,82.07
2023-02-24T01:35:16.090Z,82.48
2023-02-24T01:37:45.713Z,83.89
2023-02-24T01:40:18.959Z,83.25
2023-02-24T01:42:47.969Z,83.01
2023-02-24T01:45:22.016Z,82.59
2023-02-24T01:47:53.249Z,82.74
2023-02-24T01:50:23.816Z,82.42
2023-02-24T01:52:59.318Z,82.71
2023-02-24T01:55:32.613Z,83.22
2023-02-24T01:58:05.172Z,82.63
2023-02-24T02:00:38.153Z,82.40
2023-02-24T02:03:11.982Z,81.76
2023-02-24T02:05:41.036Z,82.59
2023-02-24T02:08:09.870Z,82.32
2023-02-24T02:10:41.454Z,83.11
2023-02-24T02:13:10.402Z,83.01
2023-02-24T02:15:47.449Z,83.17
2023-02-24T02:18:44.706Z,83.20
2023-02-24T02:21:32.832Z,83.58
2023-02-24T02:24:21.240Z,83.73
2023-02-24T02:27:10.790Z,83.23
2023-02-24T02:29:59.576Z,82.99
2023-02-24T02:32:39.529Z,83.05
2023-02-24T02:35:26.568Z,84.16
2023-02-24T02:38:05.765Z,83.31
2023-02-24T02:40:41.249Z,83.20
2023-02-24T02:43:26.136Z,82.78
2023-02-24T02:46:15.307Z,82.45
2023-02-24T02:48:58.487Z,81.69
2023-02-24T02:51:38.950Z,82.63
2023-02-24T02:54:17.137Z,82.65
2023-02-24T02:57:55.358Z,81.93
2023-02-24T03:00:29.613Z,81.94
2023-02-24T03:03:04.161Z,81.88
2023-02-24T03:05:46.725Z,81.70
2023-02-24T03:08:19.375Z,81.55
2023-02-24T03:10:51.920Z,81.25
2023-02-24T03:13:30.531Z,81.01
2023-02-24T03:16:02.657Z,81.05
2023-02-24T03:18:35.603Z,80.79
2023-02-24T03:21:08.130Z,80.14
2023-02-24T03:23:40.923Z,79.60
2023-02-24T03:26:30.520Z,79.41
2023-02-24T03:29:36.904Z,80.27
2023-02-24T03:32:12.762Z,81.13
2023-02-24T03:34:52.479Z,80.97
2023-02-24T03:37:25.986Z,81.13
2023-02-24T03:39:57.443Z,81.47
2023-02-24T03:42:31.283Z,82.33
2023-02-24T03:44:59.407Z,82.00
2023-02-24T03:47:27.772Z,81.92
2023-02-24T03:49:55.715Z,82.08
2023-02-24T03:52:49.735Z,81.77
2023-02-24T03:55:54.943Z,81.98
2023-02-24T03:59:00.029Z,82.91
2023-02-24T04:01:58.201Z,82.06
2023-02-24T04:04:46.039Z,82.10
2023-02-24T04:07:26.637Z,82.26
2023-02-24T04:10:15.499Z,82.05
2023-02-24T04:12:52.526Z,82.14
2023-02-24T04:15:29.750Z,81.99
2023-02-24T04:18:15.183Z,82.31
2023-02-24T04:20:49.610Z,82.27
2023-02-24T04:23:22.675Z,81.89
2023-02-24T04:25:53.555Z,82.60
2023-02-24T04:28:25.738Z,82.23
2023-02-24T04:31:10.387Z,81.81
2023-02-24T04:33:40.527Z,81.55
2023-02-24T04:36:13.086Z,82.12
2023-02-24T04:38:42.606Z,81.82
2023-02-24T04:41:10.788Z,82.04
2023-02-24T04:43:38.652Z,81.96
2023-02-24T04:46:08.342Z,82.17
2023-02-24T04:48:36.462Z,81.93
2023-02-24T04:51:06.815Z,82.03
2023-02-24T04:53:34.867Z,82.11
2023-02-24T04:56:09.204Z,82.27
2023-02-24T04:58:38.932Z,81.46
2023-02-24T05:01:11.167Z,81.26
2023-02-24T05:03:42.636Z,80.29
2023-02-24T05:06:18.063Z,81.30
2023-02-24T05:08:46.171Z,81.46
2023-02-24T05:11:21.757Z,80.68
2023-02-24T05:13:50.033Z,80.31
2023-02-24T05:16:20.605Z,80.46
2023-02-24T05:18:48.765Z,79.71
2023-02-24T05:21:35.958Z,80.00
2023-02-24T05:24:07.440Z,79.62
2023-02-24T05:26:38.016Z,79.97
2023-02-24T05:29:07.255Z,80.10
2023-02-24T05:31:35.646Z,80.25
2023-02-24T05:34:06.444Z,79.99
2023-02-24T05:36:40.873Z,79.70
2023-02-24T05:39:12.900Z,78.98
2023-02-24T05:41:43.410Z,78.79
2023-02-24T05:44:16.062Z,78.87
2023-02-24T05:46:46.871Z,78.74
2023-02-24T05:49:24.218Z,78.85
2023-02-24T05:51:57.309Z,78.79
2023-02-24T05:54:32.389Z,77.77
2023-02-24T05:57:12.085Z,77.78
2023-02-24T05:59:44.885Z,78.22
2023-02-24T06:02:15.180Z,77.06
2023-02-24T06:04:51.575Z,77.76
2023-02-24T06:07:34.573Z,77.50
2023-02-24T06:10:05.020Z,77.28
2023-02-24T06:12:34.532Z,76.72
2023-02-24T06:15:08.054Z,76.92
2023-02-24T06:17:36.232Z,75.96
2023-02-24T06:20:14.692Z,76.48
2023-02-24T06:22:42.796Z,76.68
2023-02-24T06:25:14.344Z,76.37
2023-02-24T06:27:43.302Z,75.73
2023-02-24T06:30:12.072Z,76.90
2023-02-24T06:32:40.375Z,77.92
2023-02-24T06:35:09.700Z,77.89
2023-02-24T06:37:37.580Z,78.05
2023-02-24T06:40:16.131Z,77.97
2023-02-24T06:42:46.651Z,78.60
2023-02-24T06:45:15.620Z,79.63
2023-02-24T06:47:43.498Z,79.80
2023-02-24T06:50:12.570Z,78.86
2023-02-24T06:52:40.945Z,79.49
2023-02-24T06:55:25.863Z,78.70
2023-02-24T06:57:59.674Z,79.00
2023-02-24T07:00:37.421Z,79.02
2023-02-24T07:03:17.377Z,78.87
2023-02-24T07:05:51.006Z,78.86
2023-02-24T07:08:23.086Z,78.06
2023-02-24T07:10:56.171Z,77.43
2023-02-24T07:13:26.084Z,77.04
2023-02-24T07:15:55.059Z,77.62
2023-02-24T07:18:26.842Z,77.67
2023-02-24T07:20:54.848Z,77.60
2023-02-24T07:23:22.723Z,77.76
2023-02-24T07:25:50.593Z,77.69
2023-02-24T07:28:19.432Z,77.50
2023-02-24T07:30:47.370Z,77.23
2023-02-24T07:33:15.398Z,76.86
2023-02-24T07:35:43.717Z,77.04
2023-02-24T07:38:14.602Z,77.15
2023-02-24T07:40:42.478Z,77.02
2023-02-24T07:43:11.302Z,76.88
2023-02-24T07:45:39.708Z,76.84
2023-02-24T07:48:08.095Z,75.80
2023-02-24T07:50:36.028Z,74.83
2023-02-24T07:53:05.725Z,75.02
2023-02-24T07:55:36.363Z,74.88
2023-02-24T07:58:06.169Z,73.72
2023-02-24T08:00:51.144Z,72.64
2023-02-24T08:03:19.260Z,72.38
2023-02-24T08:05:47.178Z,68.49
2023-02-24T08:08:21.217Z,67.96
2023-02-24T08:10:49.272Z,68.89
2023-02-24T08:13:19.424Z,68.82
2023-02-24T08:15:56.850Z,68.73
2023-02-24T08:18:24.873Z,68.69
2023-02-24T08:20:52.947Z,68.34
2023-02-24T08:23:23.725Z,68.37
2023-02-24T08:25:51.998Z,68.83
2023-02-24T08:28:20.154Z,68.96
2023-02-24T08:30:48.093Z,69.48
2023-02-24T08:33:24.493Z,69.40
2023-02-24T08:36:01.751Z,68.68
2023-02-24T08:38:44.966Z,68.77
2023-02-24T08:41:21.683Z,70.13
2023-02-24T08:43:50.024Z,69.85
2023-02-24T08:46:26.922Z,70.28
2023-02-24T08:49:01.015Z,69.67
2023-02-24T08:51:37.340Z,68.39
2023-02-24T08:54:15.677Z,68.73
2023-02-24T08:56:49.428Z,68.43
2023-02-24T08:59:37.339Z,67.98
2023-02-24T09:02:17.825Z,66.85
2023-02-24T09:04:47.784Z,65.79
2023-02-24T09:07:18.885Z,62.00
2023-02-24T09:09:47.797Z,58.00
2023-02-24T09:12:24.852Z,56.09
2023-02-24T09:14:56.232Z,54.05
2023-02-24T09:17:45.682Z,53.01
2023-02-24T09:20:27.546Z,53.60
2023-02-24T09:23:18.320Z,56.09
2023-02-24T09:25:51.007Z,58.95
2023-02-24T09:28:27.659Z,58.31
2023-02-24T09:31:00.002Z,55.22
2023-02-24T09:33:39.911Z,54.81
2023-02-24T09:36:28.449Z,54.49
2023-02-24T09:39:00.697Z,52.26
2023-02-24T09:42:18.491Z,49.38
2023-02-24T09:44:53.052Z,51.27
2023-02-24T09:47:40.499Z,55.10
2023-02-24T09:50:59.120Z,59.36
2023-02-24T09:53:18.987Z,60.80
2023-02-24T09:56:00.551Z,60.80
2023-02-24T09:58:48.108Z,59.30
2023-02-24T10:01:23.215Z,57.36
2023-02-24T10:03:56.852Z,54.57
2023-02-24T10:06:35.440Z,53.43
2023-02-24T10:09:14.102Z,52.55
2023-02-24T10:11:53.931Z,49.81
2023-02-24T10:14:53.226Z,48.62
2023-02-24T10:17:26.115Z,46.61
2023-02-24T10:20:29.408Z,44.37
2023-02-24T10:23:11.354Z,42.10
2023-02-24T10:25:54.307Z,40.02
2023-02-24T10:28:37.990Z,40.50
2023-02-24T10:31:26.754Z,40.11
2023-02-24T10:34:01.240Z,43.61
2023-02-24T10:36:35.883Z,46.48
2023-02-24T10:39:25.866Z,51.56
2023-02-24T10:42:17.971Z,53.67
2023-02-24T10:45:02.346Z,55.53
2023-02-24T10:47:31.858Z,56.41
2023-02-24T10:50:00.982Z,56.36
2023-02-24T10:57:18.797Z,57.60
2023-02-24T11:00:16.891Z,58.51
2023-02-24T11:03:07.280Z,58.83
2023-02-24T11:06:05.921Z,57.93
2023-02-24T11:08:40.052Z,58.28
2023-02-24T11:11:26.088Z,57.97
2023-02-24T11:14:15.183Z,54.84
2023-02-24T11:17:13.942Z,53.23
2023-02-24T11:19:47.587Z,52.59
2023-02-24T11:22:20.685Z,52.66
2023-02-24T11:24:50.380Z,51.35
2023-02-24T11:27:26.761Z,53.25
2023-02-24T11:30:25.289Z,53.00
2023-02-24T11:33:05.077Z,52.54
2023-02-24T11:35:43.544Z,53.09
2023-02-24T11:38:29.162Z,53.59
2023-02-24T11:41:05.594Z,53.53
2023-02-24T11:43:37.297Z,52.55
2023-02-24T11:46:17.909Z,52.50
2023-02-24T11:48:57.292Z,51.83
2023-02-24T11:51:30.414Z,49.94
2023-02-24T11:54:12.096Z,47.14
2023-02-24T11:56:44.248Z,46.34
2023-02-24T11:59:33.708Z,46.45
2023-02-24T12:02:47.346Z,47.96
2023-02-24T12:05:19.204Z,47.93
2023-02-24T12:07:56.633Z,47.82
2023-02-24T12:10:36.161Z,47.92
2023-02-24T12:13:39.056Z,48.71
2023-02-24T12:16:15.362Z,49.45
2023-02-24T12:18:50.723Z,49.98
2023-02-24T12:21:30.906Z,50.32
2023-02-24T12:23:59.496Z,50.79
2023-02-24T12:26:48.344Z,51.19
2023-02-24T12:29:42.735Z,51.28
2023-02-24T12:32:21.233Z,50.91
2023-02-24T12:35:11.388Z,50.56
2023-02-24T12:38:06.638Z,51.09
2023-02-24T12:41:04.165Z,51.01
2023-02-24T12:43:50.638Z,49.79
2023-02-24T12:46:38.850Z,48.52
2023-02-24T12:49:33.808Z,48.31
2023-02-24T12:52:25.079Z,48.86
2023-02-24T12:55:02.868Z,48.55
2023-02-24T12:57:40.598Z,49.11
2023-02-24T13:00:18.180Z,49.67
2023-02-24T13:03:06.460Z,49.15
2023-02-24T13:05:48.769Z,49.56
2023-02-24T13:08:28.855Z,49.05
2023-02-24T13:11:06.760Z,49.59
2023-02-24T13:13:45.110Z,49.01
2023-02-24T13:16:13.504Z,49.19
2023-02-24T13:18:41.737Z,50.47
2023-02-24T13:21:15.627Z,50.66
2023-02-24T13:23:57.447Z,50.94
2023-02-24T13:26:28.241Z,50.37
2023-02-24T13:29:15.690Z,51.00
2023-02-24T13:31:51.739Z,51.97
2023-02-24T13:34:30.954Z,52.23
2023-02-24T13:36:59.545Z,52.28
2023-02-24T13:39:38.654Z,51.35
2023-02-24T13:42:21.088Z,50.19
2023-02-24T13:45:13.466Z,49.67
2023-02-24T13:47:54.765Z,49.29
2023-02-24T13:50:33.161Z,49.02
2023-02-24T13:53:29.907Z,48.96
2023-02-24T13:56:34.510Z,48.40
2023-02-24T13:59:21.055Z,50.48
2023-02-24T14:02:01.660Z,51.24
2023-02-24T14:04:35.339Z,50.33
2023-02-24T14:07:09.797Z,50.54
2023-02-24T14:09:46.110Z,51.95
2023-02-24T14:12:25.449Z,52.18
2023-02-24T14:14:54.587Z,52.37
2023-02-24T14:17:32.835Z,52.01
2023-02-24T14:20:09.922Z,52.48
2023-02-24T14:22:55.538Z,51.15
2023-02-24T14:25:24.172Z,51.62
2023-02-24T14:27:55.068Z,50.36
2023-02-24T14:30:28.141Z,52.08
2023-02-24T14:32:56.673Z,53.50
2023-02-24T14:35:31.800Z,53.74
2023-02-24T14:38:02.167Z,55.39
2023-02-24T14:40:30.715Z,54.99
2023-02-24T14:42:58.799Z,55.10
2023-02-24T14:45:28.966Z,54.98
2023-02-24T14:47:57.649Z,55.08
2023-02-24T14:50:33.600Z,54.34
2023-02-24T14:53:12.433Z,54.84
2023-02-24T14:55:43.265Z,54.16
2023-02-24T14:58:28.595Z,54.29
2023-02-24T15:01:04.013Z,53.90
2023-02-24T15:03:46.674Z,53.75
2023-02-24T15:06:41.037Z,54.23
2023-02-24T15:09:19.244Z,54.70
2023-02-24T15:11:48.521Z,54.25
2023-02-24T15:14:31.255Z,54.99
2023-02-24T15:17:04.221Z,55.39
2023-02-24T15:19:44.551Z,55.70
2023-02-24T15:22:33.958Z,56.20
2023-02-24T15:25:22.353Z,56.51
2023-02-24T15:27:57.649Z,56.66
2023-02-24T15:30:33.557Z,56.94
2023-02-24T15:33:17.840Z,56.98
2023-02-24T15:35:58.703Z,57.44
2023-02-24T15:38:36.757Z,57.74
2023-02-24T15:41:06.887Z,57.43
2023-02-24T15:43:48.656Z,57.86
2023-02-24T15:46:19.331Z,58.37
2023-02-24T15:48:50.685Z,58.33
2023-02-24T15:51:29.611Z,58.92
2023-02-24T15:54:01.094Z,59.43
2023-02-24T15:56:33.226Z,58.99
2023-02-24T15:59:02.961Z,59.55
2023-02-24T16:01:31.807Z,59.65
2023-02-24T16:04:01.037Z,60.08
2023-02-24T16:06:29.657Z,59.89
2023-02-24T16:08:58.520Z,60.22
2023-02-24T16:11:29.626Z,60.45
2023-02-24T16:14:00.221Z,61.18
2023-02-24T16:16:29.069Z,61.46
2023-02-24T16:18:57.762Z,61.30
2023-02-24T16:21:26.186Z,62.15
2023-02-24T16:23:54.887Z,62.32
2023-02-24T16:26:24.355Z,62.60
2023-02-24T16:28:58.206Z,63.28
2023-02-24T16:31:27.864Z,63.48
2023-02-24T16:33:56.479Z,63.26
2023-02-24T16:36:25.936Z,63.32
2023-02-24T16:38:54.292Z,63.66
2023-02-24T16:41:23.692Z,63.18
2023-02-24T16:43:52.349Z,63.82
2023-02-24T16:46:23.620Z,64.07
2023-02-24T16:48:53.755Z,64.31
2023-02-24T16:51:22.377Z,64.64
2023-02-24T16:53:50.654Z,64.24
2023-02-24T16:56:19.270Z,64.24
2023-02-24T16:58:47.639Z,64.25
2023-02-24T17:01:21.072Z,64.27
2023-02-24T17:03:51.528Z,64.61
2023-02-24T17:06:22.534Z,64.81
2023-02-24T17:08:52.016Z,65.65
2023-02-24T17:11:22.319Z,66.11
2023-02-24T17:13:50.858Z,66.32
2023-02-24T17:16:19.449Z,66.41
2023-02-24T17:18:48.077Z,66.79
2023-02-24T17:21:17.209Z,66.48
2023-02-24T17:23:46.175Z,67.06
2023-02-24T17:26:15.415Z,66.81
2023-02-24T17:28:44.262Z,66.97
2023-02-24T17:31:12.818Z,68.18
2023-02-24T17:33:42.051Z,67.77
2023-02-24T17:36:10.958Z,67.46
2023-02-24T17:38:39.237Z,67.21
2023-02-24T17:41:07.473Z,67.21
2023-02-24T17:43:36.095Z,67.08
2023-02-24T17:46:06.940Z,67.78
2023-02-24T17:48:36.092Z,67.83
2023-02-24T17:51:04.456Z,67.99
2023-02-24T17:53:33.084Z,67.63
2023-02-24T17:56:06.427Z,67.29
2023-02-24T17:58:35.263Z,67.96
2023-02-24T18:01:06.611Z,67.82
2023-02-24T18:03:36.714Z,67.50
2023-02-24T18:06:13.338Z,67.96
2023-02-24T18:08:41.833Z,68.23
2023-02-24T18:11:16.404Z,68.46
2023-02-24T18:13:45.302Z,69.43
2023-02-24T18:16:16.809Z,69.07
2023-02-24T18:18:45.484Z,69.60
2023-02-24T18:21:13.922Z,69.92
2023-02-24T18:23:42.373Z,69.81
2023-02-24T18:26:12.764Z,69.68
2023-02-24T18:28:41.347Z,70.22
2023-02-24T18:31:21.565Z,70.41
2023-02-24T18:33:50.490Z,70.67
2023-02-24T18:36:20.083Z,70.38
2023-02-24T18:38:48.813Z,69.66
2023-02-24T18:41:19.594Z,69.46
2023-02-24T18:43:49.345Z,70.57
2023-02-24T18:46:19.445Z,70.50
2023-02-24T18:48:50.630Z,70.21
2023-02-24T18:51:22.499Z,70.18
2023-02-24T18:53:52.891Z,71.57
2023-02-24T18:56:26.687Z,70.84
2023-02-24T18:58:58.100Z,70.90
2023-02-24T19:01:33.020Z,70.89
2023-02-24T19:04:02.017Z,70.69
2023-02-24T19:06:32.492Z,71.36
2023-02-24T19:09:07.934Z,71.23
2023-02-24T19:11:37.543Z,71.10
2023-02-24T19:14:06.810Z,71.90
2023-02-24T19:16:35.505Z,71.85
2023-02-24T19:19:04.592Z,71.79
2023-02-24T19:21:33.661Z,70.23
2023-02-24T19:24:04.148Z,70.81
2023-02-24T19:26:32.675Z,69.97
2023-02-24T19:29:01.137Z,70.22
2023-02-24T19:31:31.820Z,70.90
2023-02-24T19:34:03.521Z,71.01
2023-02-24T19:36:33.223Z,71.29
2023-02-24T19:39:02.082Z,71.78
2023-02-24T19:41:30.781Z,72.25
2023-02-24T19:43:59.348Z,72.95
2023-02-24T19:46:29.198Z,73.37
2023-02-24T19:48:57.368Z,73.32
2023-02-24T19:51:26.436Z,73.75
2023-02-24T19:53:57.107Z,74.15
2023-02-24T19:56:33.922Z,73.45
2023-02-24T19:59:03.704Z,73.62
2023-02-24T20:01:32.268Z,73.77
2023-02-24T20:04:03.053Z,74.42
2023-02-24T20:06:36.147Z,75.12
2023-02-24T20:09:10.173Z,74.95
2023-02-24T20:11:39.926Z,75.60
2023-02-24T20:14:09.745Z,75.48
2023-02-24T20:16:42.829Z,76.43
2023-02-24T20:19:13.136Z,76.14
2023-02-24T20:21:42.618Z,75.65
2023-02-24T20:24:15.057Z,76.31
2023-02-24T20:26:47.489Z,76.49
2023-02-24T20:29:18.535Z,76.21
2023-02-24T20:31:47.782Z,75.63
2023-02-24T20:34:17.220Z,75.49
2023-02-24T20:36:45.964Z,74.68
2023-02-24T20:39:14.797Z,75.19
2023-02-24T20:41:44.171Z,76.67
2023-02-24T20:44:12.577Z,76.71
2023-02-24T20:46:41.007Z,76.40
2023-02-24T20:49:15.020Z,75.29
2023-02-24T20:51:43.953Z,74.61
2023-02-24T20:54:13.350Z,74.63
2023-02-24T20:56:44.576Z,75.12
2023-02-24T20:59:16.881Z,74.94
2023-02-24T21:01:47.947Z,74.38
2023-02-24T21:04:19.496Z,74.74
2023-02-24T21:06:48.879Z,74.81
2023-02-24T21:09:17.298Z,75.42
2023-02-24T21:11:45.692Z,75.49
2023-02-24T21:14:16.064Z,75.62
2023-02-24T21:16:46.489Z,77.10
2023-02-24T21:19:15.397Z,79.10
2023-02-24T21:21:43.493Z,78.88
2023-02-24T21:24:11.645Z,78.80
2023-02-24T21:26:39.877Z,78.81
2023-02-24T21:29:08.477Z,78.55
2023-02-24T21:31:36.738Z,79.08
2023-02-24T21:34:05.186Z,79.40
2023-02-24T21:36:33.167Z,78.90
2023-02-24T21:39:01.471Z,78.71
2023-02-24T21:41:29.621Z,79.12
2023-02-24T21:44:00.809Z,79.08
2023-02-24T21:46:29.337Z,79.27
2023-02-24T21:48:58.709Z,78.97
2023-02-24T21:51:28.093Z,78.82
2023-02-24T21:53:58.000Z,77.90
2023-02-24T21:56:28.881Z,78.60
2023-02-24T21:59:05.976Z,78.29
2023-02-24T22:01:36.963Z,77.75
2023-02-24T22:04:09.138Z,77.88
2023-02-24T22:06:39.341Z,77.72
2023-02-24T22:09:09.958Z,76.66
2023-02-24T22:11:41.225Z,76.75
2023-02-24T22:14:11.859Z,77.16
2023-02-24T22:16:40.988Z,76.15
2023-02-24T22:19:09.225Z,75.88
2023-02-24T22:21:39.422Z,76.16
2023-02-24T22:24:07.603Z,75.91
2023-02-24T22:26:35.423Z,75.40
2023-02-24T22:29:03.709Z,76.34
2023-02-24T22:31:33.700Z,76.05
2023-02-24T22:34:01.738Z,76.66
2023-02-24T22:36:32.089Z,76.42
2023-02-24T22:39:01.953Z,76.50
2023-02-24T22:41:32.499Z,76.21
2023-02-24T22:44:01.942Z,75.47
2023-02-24T22:46:32.951Z,75.62
2023-02-24T22:49:01.199Z,76.56
2023-02-24T22:51:29.212Z,76.14
2023-02-24T22:53:57.306Z,76.17
2023-02-24T22:56:28.000Z,76.16
2023-02-24T22:58:56.390Z,76.07
2023-02-24T23:01:30.456Z,76.05
2023-02-24T23:04:03.948Z,75.67
2023-02-24T23:06:32.696Z,75.11
2023-02-24T23:09:01.178Z,75.14
2023-02-24T23:11:35.201Z,77.52
2023-02-24T23:14:06.225Z,77.35
2023-02-24T23:16:35.355Z,77.85
2023-02-24T23:19:06.461Z,78.60
2023-02-24T23:21:43.455Z,77.91
2023-02-24T23:24:14.064Z,78.78
2023-02-24T23:26:47.432Z,82.08
2023-02-24T23:29:17.743Z,81.78
2023-02-24T23:31:46.428Z,82.04
2023-02-24T23:34:15.202Z,82.53
2023-02-24T23:36:45.491Z,81.34
2023-02-24T23:39:16.268Z,81.79
2023-02-24T23:41:44.504Z,81.38
2023-02-24T23:44:12.979Z,81.80
2023-02-24T23:46:44.792Z,82.89
2023-02-24T23:49:12.822Z,84.38
2023-02-24T23:51:48.407Z,83.94
2023-02-24T23:54:18.472Z,83.25
2023-02-24T23:56:49.048Z,81.89
2023-02-24T23:59:17.156Z,82.32
